www.cux-wetter.de
Wetterdaten: Dienstag, 21.05.2013
Datum Zeit Temp. A. Feuchte A. Luftdruck Regen Wind Richtung Richtung Sonnenschein Solar Taupunkt Windchill Windben
21.05.2013 00:00 13,9 C 90 % 1007,5 hPa 0,0 l/m 0,1 km/h (0 Bft) W-SW 245 0 min 0 W/m 12,3 C 13,9 C 0,1 km/h (0 Bft)
21.05.2013 00:15 13,9 C 91 % 1007,5 hPa 0,0 l/m 5,0 km/h (1 Bft) W-SW 250 0 min 0 W/m 12,5 C 13,9 C 5,0 km/h (1 Bft)
21.05.2013 00:30 13,8 C 91 % 1007,5 hPa 0,0 l/m 5,0 km/h (1 Bft) W-SW 245 0 min 0 W/m 12,4 C 13,8 C 5,0 km/h (1 Bft)
21.05.2013 00:45 13,8 C 91 % 1007,5 hPa 0,0 l/m 0,3 km/h (0 Bft) W-SW 245 0 min 0 W/m 12,4 C 13,8 C 0,3 km/h (0 Bft)
21.05.2013 01:00 13,8 C 91 % 1007,5 hPa 0,0 l/m 3,3 km/h (1 Bft) W-SW 245 0 min 0 W/m 12,4 C 13,8 C 3,3 km/h (1 Bft)
21.05.2013 01:15 13,7 C 91 % 1007,5 hPa 0,3 l/m 0,0 km/h (0 Bft) W-SW 245 0 min 0 W/m 12,3 C 13,7 C 0,0 km/h (0 Bft)
21.05.2013 01:30 13,7 C 91 % 1007,5 hPa 0,0 l/m 4,6 km/h (1 Bft) W-SW 245 0 min 0 W/m 12,3 C 13,7 C 4,6 km/h (1 Bft)
21.05.2013 01:45 13,6 C 92 % 1007,5 hPa 0,0 l/m 7,4 km/h (2 Bft) W-SW 255 0 min 0 W/m 12,3 C 13,0 C 7,4 km/h (2 Bft)
21.05.2013 02:00 13,6 C 92 % 1007,5 hPa 0,3 l/m 9,0 km/h (2 Bft) W 265 0 min 0 W/m 12,3 C 12,1 C 9,0 km/h (2 Bft)
21.05.2013 02:15 13,6 C 92 % 1007,5 hPa 0,0 l/m 14,4 km/h (3 Bft) W-SW 255 0 min 0 W/m 12,3 C 9,7 C 14,4 km/h (3 Bft)
21.05.2013 02:30 13,2 C 92 % 1007,5 hPa 0,0 l/m 11,3 km/h (2 Bft) NW 325 0 min 0 W/m 11,9 C 10,5 C 11,3 km/h (2 Bft)
21.05.2013 02:45 13,2 C 92 % 1007,5 hPa 0,0 l/m 10,3 km/h (2 Bft) NW 315 0 min 0 W/m 11,9 C 11,0 C 10,3 km/h (2 Bft)
21.05.2013 03:00 13,2 C 92 % 1007,5 hPa 0,0 l/m 12,1 km/h (2 Bft) W 270 0 min 0 W/m 11,9 C 10,2 C 12,1 km/h (2 Bft)
21.05.2013 03:15 13,2 C 92 % 1007,5 hPa 0,0 l/m 6,2 km/h (2 Bft) W-NW 295 0 min 0 W/m 11,9 C 13,2 C 6,2 km/h (2 Bft)
21.05.2013 03:30 13,2 C 93 % 1007,5 hPa 0,0 l/m 6,3 km/h (2 Bft) W 275 0 min 0 W/m 12,1 C 13,2 C 6,3 km/h (2 Bft)
21.05.2013 03:45 13,1 C 93 % 1007,5 hPa 0,0 l/m 9,4 km/h (2 Bft) NW 310 0 min 0 W/m 12,0 C 11,3 C 9,4 km/h (2 Bft)
21.05.2013 04:00 13,0 C 93 % 1007,5 hPa 0,0 l/m 9,7 km/h (2 Bft) NW 310 0 min 0 W/m 11,9 C 11,1 C 9,7 km/h (2 Bft)
21.05.2013 04:15 13,0 C 93 % 1007,5 hPa 0,0 l/m 10,6 km/h (2 Bft) W-NW 285 0 min 0 W/m 11,9 C 10,6 C 10,6 km/h (2 Bft)
21.05.2013 04:30 13,0 C 93 % 1007,5 hPa 0,0 l/m 7,9 km/h (2 Bft) W-NW 290 0 min 0 W/m 11,9 C 12,1 C 7,9 km/h (2 Bft)
21.05.2013 04:45 12,9 C 93 % 1007,5 hPa 0,0 l/m 7,3 km/h (2 Bft) W-NW 300 0 min 0 W/m 11,8 C 12,3 C 7,3 km/h (2 Bft)
21.05.2013 05:00 12,9 C 93 % 1007,5 hPa 0,0 l/m 6,5 km/h (2 Bft) W 270 0 min 0 W/m 11,8 C 12,9 C 6,5 km/h (2 Bft)
21.05.2013 05:15 12,9 C 93 % 1007,5 hPa 0,0 l/m 8,6 km/h (2 Bft) W-SW 245 0 min 0 W/m 11,8 C 11,5 C 8,6 km/h (2 Bft)
21.05.2013 05:30 12,9 C 93 % 1007,5 hPa 0,0 l/m 0,7 km/h (0 Bft) W-SW 250 0 min 0 W/m 11,8 C 12,9 C 0,7 km/h (0 Bft)
21.05.2013 05:45 12,9 C 93 % 1007,5 hPa 0,0 l/m 6,4 km/h (2 Bft) W 260 0 min 0 W/m 11,8 C 12,9 C 6,4 km/h (2 Bft)
21.05.2013 06:00 12,8 C 93 % 1007,5 hPa 0,0 l/m 7,9 km/h (2 Bft) W 265 0 min 0 W/m 11,7 C 11,9 C 7,9 km/h (2 Bft)
21.05.2013 06:15 12,8 C 93 % 1007,5 hPa 0,0 l/m 9,4 km/h (2 Bft) W 270 0 min 0 W/m 11,7 C 11,0 C 9,4 km/h (2 Bft)
21.05.2013 06:30 12,8 C 93 % 1007,5 hPa 0,0 l/m 9,0 km/h (2 Bft) W-SW 255 0 min 0 W/m 11,7 C 11,2 C 9,0 km/h (2 Bft)
21.05.2013 06:45 12,9 C 93 % 1007,5 hPa 0,0 l/m 12,7 km/h (3 Bft) W 260 0 min 0 W/m 11,8 C 9,6 C 12,7 km/h (3 Bft)
21.05.2013 07:00 12,9 C 93 % 1006,5 hPa 0,0 l/m 13,4 km/h (3 Bft) W 265 0 min 0 W/m 11,8 C 9,3 C 13,4 km/h (3 Bft)
21.05.2013 07:15 13,0 C 93 % 1006,5 hPa 0,0 l/m 14,2 km/h (3 Bft) W-SW 255 0 min 0 W/m 11,9 C 9,1 C 14,2 km/h (3 Bft)
21.05.2013 07:30 13,1 C 93 % 1007,5 hPa 0,0 l/m 14,9 km/h (3 Bft) W-NW 285 0 min 0 W/m 12,0 C 8,9 C 14,9 km/h (3 Bft)
21.05.2013 07:45 13,1 C 93 % 1007,5 hPa 0,0 l/m 11,8 km/h (2 Bft) W 270 0 min 0 W/m 12,0 C 10,2 C 11,8 km/h (2 Bft)
21.05.2013 08:00 13,1 C 92 % 1007,5 hPa 0,0 l/m 12,5 km/h (2 Bft) W 275 0 min 0 W/m 11,8 C 9,9 C 12,5 km/h (2 Bft)
21.05.2013 08:15 13,1 C 92 % 1007,5 hPa 0,0 l/m 13,4 km/h (3 Bft) W-NW 290 0 min 0 W/m 11,8 C 9,5 C 13,4 km/h (3 Bft)
21.05.2013 08:30 13,1 C 92 % 1007,5 hPa 0,0 l/m 11,8 km/h (2 Bft) W 270 0 min 0 W/m 11,8 C 10,2 C 11,8 km/h (2 Bft)
21.05.2013 08:45 13,2 C 92 % 1007,5 hPa 0,0 l/m 10,3 km/h (2 Bft) W 270 0 min 0 W/m 11,9 C 11,0 C 10,3 km/h (2 Bft)
21.05.2013 09:00 13,1 C 92 % 1007,5 hPa 0,0 l/m 11,8 km/h (2 Bft) W 270 0 min 0 W/m 11,8 C 10,2 C 11,8 km/h (2 Bft)
21.05.2013 09:15 13,2 C 92 % 1007,5 hPa 0,0 l/m 12,5 km/h (2 Bft) W 265 0 min 0 W/m 11,9 C 10,0 C 12,5 km/h (2 Bft)
21.05.2013 09:30 13,2 C 92 % 1007,5 hPa 0,0 l/m 15,0 km/h (3 Bft) W 260 0 min 0 W/m 11,9 C 9,0 C 15,0 km/h (3 Bft)
21.05.2013 09:45 13,3 C 92 % 1007,5 hPa 0,0 l/m 16,8 km/h (3 Bft) W 260 0 min 0 W/m 12,0 C 8,5 C 16,8 km/h (3 Bft)
21.05.2013 10:00 13,3 C 92 % 1007,5 hPa 0,3 l/m 18,5 km/h (3 Bft) W 260 0 min 0 W/m 12,0 C 8,0 C 18,5 km/h (3 Bft)
21.05.2013 10:15 13,4 C 92 % 1007,5 hPa 0,3 l/m 16,8 km/h (3 Bft) W-SW 250 0 min 0 W/m 12,1 C 8,6 C 16,8 km/h (3 Bft)
21.05.2013 10:30 13,5 C 92 % 1007,5 hPa 0,0 l/m 19,1 km/h (3 Bft) W 265 0 min 0 W/m 12,2 C 8,1 C 19,1 km/h (3 Bft)
21.05.2013 10:45 13,7 C 92 % 1007,5 hPa 0,0 l/m 19,0 km/h (3 Bft) W 260 0 min 0 W/m 12,4 C 8,3 C 19,0 km/h (3 Bft)
21.05.2013 11:00 13,6 C 92 % 1007,5 hPa 0,0 l/m 21,1 km/h (4 Bft) W 275 0 min 0 W/m 12,3 C 7,6 C 21,1 km/h (4 Bft)
21.05.2013 11:15 13,5 C 92 % 1007,5 hPa 0,0 l/m 17,4 km/h (3 Bft) W 260 0 min 0 W/m 12,2 C 8,6 C 17,4 km/h (3 Bft)
21.05.2013 11:30 13,5 C 91 % 1007,5 hPa 0,0 l/m 19,3 km/h (3 Bft) W 260 0 min 0 W/m 12,1 C 8,0 C 19,3 km/h (3 Bft)
21.05.2013 11:45 13,4 C 91 % 1007,5 hPa 0,0 l/m 20,5 km/h (4 Bft) W 265 0 min 0 W/m 12,0 C 7,5 C 20,5 km/h (4 Bft)
21.05.2013 12:00 13,3 C 91 % 1007,5 hPa 0,0 l/m 17,1 km/h (3 Bft) W 260 0 min 0 W/m 11,9 C 8,4 C 17,1 km/h (3 Bft)
21.05.2013 12:15 13,3 C 91 % 1007,5 hPa 0,0 l/m 19,3 km/h (3 Bft) W 265 0 min 0 W/m 11,9 C 7,7 C 19,3 km/h (3 Bft)
21.05.2013 12:30 13,3 C 91 % 1007,5 hPa 0,0 l/m 20,3 km/h (4 Bft) W-SW 255 0 min 0 W/m 11,9 C 7,5 C 20,3 km/h (4 Bft)
21.05.2013 12:45 13,2 C 91 % 1007,5 hPa 0,0 l/m 20,9 km/h (4 Bft) W 260 0 min 0 W/m 11,8 C 7,2 C 20,9 km/h (4 Bft)
21.05.2013 13:00 13,2 C 91 % 1007,5 hPa 0,0 l/m 20,9 km/h (4 Bft) W 260 0 min 0 W/m 11,8 C 7,2 C 20,9 km/h (4 Bft)
21.05.2013 13:15 13,1 C 91 % 1007,5 hPa 0,0 l/m 17,6 km/h (3 Bft) W-SW 255 0 min 0 W/m 11,7 C 8,0 C 17,6 km/h (3 Bft)
21.05.2013 13:30 13,1 C 91 % 1007,5 hPa 0,0 l/m 17,9 km/h (3 Bft) W 260 0 min 0 W/m 11,7 C 7,9 C 17,9 km/h (3 Bft)
21.05.2013 13:45 13,1 C 91 % 1006,5 hPa 0,3 l/m 17,7 km/h (3 Bft) W 260 0 min 0 W/m 11,7 C 8,0 C 17,7 km/h (3 Bft)
21.05.2013 14:00 13,2 C 91 % 1006,5 hPa 0,6 l/m 18,8 km/h (3 Bft) W-SW 255 0 min 0 W/m 11,8 C 7,8 C 18,8 km/h (3 Bft)
21.05.2013 14:15 13,1 C 92 % 1006,5 hPa 0,3 l/m 15,9 km/h (3 Bft) W 260 0 min 0 W/m 11,8 C 8,6 C 15,9 km/h (3 Bft)
21.05.2013 14:30 13,1 C 92 % 1006,5 hPa 0,3 l/m 15,1 km/h (3 Bft) W 265 0 min 0 W/m 11,8 C 8,9 C 15,1 km/h (3 Bft)
21.05.2013 14:45 13,0 C 92 % 1006,5 hPa 0,3 l/m 19,3 km/h (3 Bft) W-SW 250 0 min 0 W/m 11,7 C 7,4 C 19,3 km/h (3 Bft)
21.05.2013 15:00 13,0 C 92 % 1006,5 hPa 0,3 l/m 18,2 km/h (3 Bft) W 265 0 min 0 W/m 11,7 C 7,7 C 18,2 km/h (3 Bft)
21.05.2013 15:15 13,0 C 92 % 1006,5 hPa 0,0 l/m 21,3 km/h (4 Bft) W 260 0 min 0 W/m 11,7 C 6,8 C 21,3 km/h (4 Bft)
21.05.2013 15:30 13,0 C 93 % 1006,5 hPa 0,3 l/m 19,1 km/h (3 Bft) W 270 0 min 0 W/m 11,9 C 7,4 C 19,1 km/h (3 Bft)
21.05.2013 15:45 12,7 C 92 % 1006,5 hPa 0,0 l/m 20,2 km/h (4 Bft) W-NW 285 0 min 0 W/m 11,4 C 6,7 C 20,2 km/h (4 Bft)
21.05.2013 16:00 12,7 C 93 % 1006,5 hPa 0,0 l/m 17,3 km/h (3 Bft) W-NW 300 0 min 0 W/m 11,6 C 7,6 C 17,3 km/h (3 Bft)
21.05.2013 16:15 12,6 C 93 % 1006,5 hPa 0,0 l/m 17,0 km/h (3 Bft) W-NW 295 0 min 0 W/m 11,5 C 7,6 C 17,0 km/h (3 Bft)
21.05.2013 16:30 12,2 C 92 % 1006,5 hPa 0,0 l/m 19,1 km/h (3 Bft) NW 305 0 min 0 W/m 10,9 C 6,4 C 19,1 km/h (3 Bft)
21.05.2013 16:45 12,2 C 93 % 1006,5 hPa 0,3 l/m 17,3 km/h (3 Bft) W 280 0 min 0 W/m 11,1 C 7,0 C 17,3 km/h (3 Bft)
21.05.2013 17:00 12,1 C 93 % 1006,5 hPa 0,0 l/m 17,1 km/h (3 Bft) W 270 0 min 0 W/m 11,0 C 6,9 C 17,1 km/h (3 Bft)
21.05.2013 17:15 12,0 C 93 % 1005,5 hPa 0,0 l/m 14,2 km/h (3 Bft) W-NW 295 0 min 0 W/m 10,9 C 7,9 C 14,2 km/h (3 Bft)
21.05.2013 17:30 12,0 C 93 % 1005,5 hPa 0,0 l/m 14,6 km/h (3 Bft) W 270 0 min 0 W/m 10,9 C 7,7 C 14,6 km/h (3 Bft)
21.05.2013 17:45 11,9 C 93 % 1005,5 hPa 0,3 l/m 15,6 km/h (3 Bft) W 260 0 min 0 W/m 10,8 C 7,2 C 15,6 km/h (3 Bft)
21.05.2013 18:00 11,8 C 93 % 1005,5 hPa 0,0 l/m 15,9 km/h (3 Bft) NW 310 0 min 0 W/m 10,7 C 7,0 C 15,9 km/h (3 Bft)
21.05.2013 18:15 11,6 C 93 % 1005,5 hPa 0,0 l/m 16,3 km/h (3 Bft) W-NW 300 0 min 0 W/m 10,5 C 6,6 C 16,3 km/h (3 Bft)
21.05.2013 18:30 11,4 C 93 % 1005,5 hPa 0,0 l/m 16,6 km/h (3 Bft) W-NW 295 0 min 0 W/m 10,3 C 6,2 C 16,6 km/h (3 Bft)
21.05.2013 18:45 11,2 C 93 % 1005,5 hPa 0,3 l/m 17,8 km/h (3 Bft) NW 305 0 min 0 W/m 10,1 C 5,6 C 17,8 km/h (3 Bft)
21.05.2013 19:00 11,2 C 93 % 1005,5 hPa 0,0 l/m 14,2 km/h (3 Bft) NW 305 0 min 0 W/m 10,1 C 6,9 C 14,2 km/h (3 Bft)
21.05.2013 19:15 11,1 C 93 % 1005,5 hPa 0,0 l/m 17,8 km/h (3 Bft) NW 310 0 min 0 W/m 10,0 C 5,4 C 17,8 km/h (3 Bft)
21.05.2013 19:30 11,0 C 93 % 1005,5 hPa 0,0 l/m 19,0 km/h (3 Bft) W-NW 295 0 min 0 W/m 9,9 C 4,9 C 19,0 km/h (3 Bft)
21.05.2013 19:45 11,0 C 93 % 1005,5 hPa 0,3 l/m 20,7 km/h (4 Bft) NW 315 0 min 0 W/m 9,9 C 4,4 C 20,7 km/h (4 Bft)
21.05.2013 20:00 10,9 C 93 % 1005,5 hPa 0,0 l/m 21,0 km/h (4 Bft) NW 315 0 min 0 W/m 9,8 C 4,1 C 21,0 km/h (4 Bft)
21.05.2013 20:15 11,1 C 93 % 1004,5 hPa 0,0 l/m 13,5 km/h (3 Bft) N-NW 330 0 min 0 W/m 10,0 C 7,1 C 13,5 km/h (3 Bft)
21.05.2013 20:30 11,2 C 94 % 1004,5 hPa 0,0 l/m 16,1 km/h (3 Bft) NW 320 0 min 0 W/m 10,3 C 6,2 C 16,1 km/h (3 Bft)
21.05.2013 20:45 11,2 C 94 % 1004,5 hPa 0,0 l/m 18,0 km/h (3 Bft) N-NW 345 0 min 0 W/m 10,3 C 5,5 C 18,0 km/h (3 Bft)
21.05.2013 21:00 11,2 C 94 % 1004,5 hPa 0,0 l/m 15,2 km/h (3 Bft) N-NW 340 0 min 0 W/m 10,3 C 6,5 C 15,2 km/h (3 Bft)
21.05.2013 21:15 11,0 C 94 % 1004,5 hPa 0,0 l/m 22,5 km/h (4 Bft) N 5 0 min 0 W/m 10,1 C 3,8 C 22,5 km/h (4 Bft)
21.05.2013 21:30 10,9 C 94 % 1004,5 hPa 0,0 l/m 19,5 km/h (3 Bft) N 10 0 min 0 W/m 10,0 C 4,6 C 19,5 km/h (3 Bft)
21.05.2013 21:45 10,8 C 94 % 1005,5 hPa 0,3 l/m 23,6 km/h (4 Bft) N 5 0 min 0 W/m 9,9 C 3,3 C 23,6 km/h (4 Bft)
21.05.2013 22:00 10,8 C 94 % 1004,5 hPa 0,3 l/m 19,5 km/h (3 Bft) N 360 0 min 0 W/m 9,9 C 4,5 C 19,5 km/h (3 Bft)
21.05.2013 22:15 10,7 C 94 % 1004,5 hPa 0,3 l/m 27,6 km/h (5 Bft) N 10 0 min 0 W/m 9,8 C 2,2 C 27,6 km/h (5 Bft)
21.05.2013 22:30 10,6 C 94 % 1004,5 hPa 0,3 l/m 28,6 km/h (5 Bft) N 5 0 min 0 W/m 9,7 C 1,8 C 28,6 km/h (5 Bft)
21.05.2013 22:45 10,6 C 94 % 1004,5 hPa 0,6 l/m 24,1 km/h (4 Bft) N 5 0 min 0 W/m 9,7 C 2,9 C 24,1 km/h (4 Bft)
21.05.2013 23:00 10,6 C 94 % 1004,5 hPa 0,6 l/m 25,6 km/h (4 Bft) N-NO 20 0 min 0 W/m 9,7 C 2,5 C 25,6 km/h (4 Bft)
21.05.2013 23:15 10,6 C 94 % 1004,5 hPa 0,3 l/m 27,4 km/h (5 Bft) N 10 0 min 0 W/m 9,7 C 2,1 C 27,4 km/h (5 Bft)
21.05.2013 23:30 10,6 C 94 % 1004,5 hPa 0,0 l/m 26,8 km/h (4 Bft) N 10 0 min 0 W/m 9,7 C 2,2 C 26,8 km/h (4 Bft)
21.05.2013 23:45 10,5 C 94 % 1004,5 hPa 0,0 l/m 29,6 km/h (5 Bft) N 355 0 min 0 W/m 9,6 C 1,4 C 29,6 km/h (5 Bft)
_ Min-Zeit 23:45 00:00 20:15 - 01:15 - - - - 23:45 23:45 01:15
Minimum _ 10,5 C 90 % 1004,5 hPa - 0,0 km/h (0 Bft) - - - - 9,6 C 1,4 C 0,0 km/h (0 Bft)
_ Max-Zeit 00:00 20:30 00:00 14:00 23:45 - - 00:00 00:00 00:15 00:00 23:45
Maximum _ 13,9 C 94 % 1007,5 hPa 0,6 l/m 29,6 km/h
N (5 Bft)
- - 0 min 0 W/m 12,5 C 13,9 C 29,6 km/h
N (5 Bft)
Durchschnitt _ 12,6 C 92 % 1006,6 hPa #7,5 l/m 15,1 km/h (3 Bft) W - #0 min. 0 W/m 11,4 C 8,4 C 15,1 km/h (3 Bft)
copyright by Holger Just